Terminal Aerodrome Forecast
Issued by NWS St Louis, MO

Home | Current Version | Previous Version | Text Only | Print | Product List | Glossary On
Versions: 1 2 3 4 5 6 7 8 9 10 11 12 13 14
000
FTUS43 KLSX 231122
TAFCOU
TAF
KCOU 231122Z 2312/2412 13009KT P6SM VCTS OVC040CB
     FM231800 15012KT P6SM OVC050
     FM232000 16013KT P6SM SCT250
     FM240300 17015G19KT P6SM SCT250 WS014/19045KT=

USA.gov is the U.S. government's official web portal to all federal, state and local government web resources and services.